RMA1010 EDDF-LSZH
Flight info
| Callsign | RMA1010 |
|---|---|
| Flight time | 0h 38m |
| Altitude | 23000 |
| Route | ANEKI2L ANEKI Y163 NEKLO Y171 INKAM T725 LAMGO T721 RILAX |
| Aircraft | A320/M-SDE3FGHIRWY/LB1 |
Departure
| Time | 2026-05-01 12:31 |
|---|---|
| Airport | Frankfurt Main Airport (EDDF) |
Arrival
| Time | 2026-05-01 13:09 |
|---|---|
| Airport | Zürich Airport (LSZH) |
| Time | Latitude | Longitude | Altitude | Speed | Heading |
|---|---|---|---|---|---|
| 2026-05-01 11:55 | 50.04851 | 8.58900 | 365 ft | 0 kts | 340° |
| 2026-05-01 12:09 | 50.04850 | 8.58901 | 365 ft | 2 kts | 340° |
| 2026-05-01 12:09 | 50.04827 | 8.58914 | 369 ft | 4 kts | 340° |
| 2026-05-01 12:10 | 50.04802 | 8.58929 | 367 ft | 4 kts | 340° |
| 2026-05-01 12:10 | 50.04776 | 8.58944 | 369 ft | 0 kts | 340° |
| 2026-05-01 12:14 | 50.04778 | 8.58943 | 369 ft | 1 kts | 340° |
| 2026-05-01 12:14 | 50.04785 | 8.58948 | 369 ft | 1 kts | 47° |
| 2026-05-01 12:14 | 50.04785 | 8.58954 | 369 ft | 2 kts | 74° |
| 2026-05-01 12:14 | 50.04796 | 8.59051 | 368 ft | 11 kts | 75° |
| 2026-05-01 12:15 | 50.04825 | 8.59173 | 370 ft | 13 kts | 69° |
| 2026-05-01 12:15 | 50.04844 | 8.59312 | 372 ft | 14 kts | 95° |
| 2026-05-01 12:15 | 50.04814 | 8.59378 | 371 ft | 0 kts | 160° |
| 2026-05-01 12:15 | 50.04815 | 8.59389 | 374 ft | 4 kts | 92° |
| 2026-05-01 12:16 | 50.04830 | 8.59490 | 373 ft | 11 kts | 104° |
| 2026-05-01 12:16 | 50.04815 | 8.59524 | 370 ft | 0 kts | 133° |
| 2026-05-01 12:16 | 50.04801 | 8.59543 | 370 ft | 11 kts | 141° |
| 2026-05-01 12:16 | 50.04697 | 8.59608 | 374 ft | 15 kts | 170° |
| 2026-05-01 12:17 | 50.04592 | 8.59622 | 375 ft | 15 kts | 179° |
| 2026-05-01 12:17 | 50.04487 | 8.59627 | 376 ft | 15 kts | 177° |
| 2026-05-01 12:17 | 50.04381 | 8.59632 | 376 ft | 15 kts | 178° |
| 2026-05-01 12:17 | 50.04272 | 8.59638 | 376 ft | 16 kts | 178° |
| 2026-05-01 12:18 | 50.04157 | 8.59613 | 375 ft | 17 kts | 199° |
| 2026-05-01 12:18 | 50.04055 | 8.59550 | 375 ft | 15 kts | 204° |
| 2026-05-01 12:18 | 50.03969 | 8.59473 | 373 ft | 15 kts | 217° |
| 2026-05-01 12:18 | 50.03897 | 8.59351 | 374 ft | 16 kts | 233° |
| 2026-05-01 12:19 | 50.03848 | 8.59190 | 368 ft | 16 kts | 252° |
| 2026-05-01 12:19 | 50.03812 | 8.59035 | 367 ft | 15 kts | 246° |
| 2026-05-01 12:19 | 50.03773 | 8.58881 | 366 ft | 16 kts | 249° |
| 2026-05-01 12:19 | 50.03734 | 8.58716 | 364 ft | 16 kts | 250° |
| 2026-05-01 12:20 | 50.03697 | 8.58557 | 360 ft | 15 kts | 250° |
| 2026-05-01 12:20 | 50.03661 | 8.58405 | 361 ft | 15 kts | 250° |
| 2026-05-01 12:20 | 50.03628 | 8.58267 | 361 ft | 13 kts | 250° |
| 2026-05-01 12:20 | 50.03598 | 8.58141 | 360 ft | 11 kts | 250° |
| 2026-05-01 12:21 | 50.03571 | 8.58030 | 363 ft | 11 kts | 248° |
| 2026-05-01 12:21 | 50.03548 | 8.57929 | 364 ft | 9 kts | 250° |
| 2026-05-01 12:21 | 50.03511 | 8.57778 | 356 ft | 21 kts | 249° |
| 2026-05-01 12:21 | 50.03459 | 8.57567 | 359 ft | 20 kts | 250° |
| 2026-05-01 12:22 | 50.03412 | 8.57364 | 355 ft | 20 kts | 249° |
| 2026-05-01 12:22 | 50.03366 | 8.57172 | 354 ft | 19 kts | 250° |
| 2026-05-01 12:22 | 50.03321 | 8.56984 | 354 ft | 19 kts | 249° |
| 2026-05-01 12:22 | 50.03269 | 8.56767 | 353 ft | 23 kts | 251° |
| 2026-05-01 12:23 | 50.03213 | 8.56526 | 352 ft | 24 kts | 251° |
| 2026-05-01 12:23 | 50.03155 | 8.56280 | 353 ft | 25 kts | 249° |
| 2026-05-01 12:23 | 50.03091 | 8.56018 | 350 ft | 27 kts | 250° |
| 2026-05-01 12:23 | 50.03024 | 8.55736 | 349 ft | 28 kts | 250° |
| 2026-05-01 12:24 | 50.02957 | 8.55462 | 351 ft | 25 kts | 249° |
| 2026-05-01 12:24 | 50.02901 | 8.55221 | 353 ft | 23 kts | 249° |
| 2026-05-01 12:24 | 50.02847 | 8.54998 | 347 ft | 21 kts | 250° |
| 2026-05-01 12:24 | 50.02798 | 8.54788 | 337 ft | 20 kts | 250° |
| 2026-05-01 12:25 | 50.02747 | 8.54594 | 338 ft | 19 kts | 249° |
| 2026-05-01 12:25 | 50.02672 | 8.54235 | 336 ft | 17 kts | 258° |
| 2026-05-01 12:25 | 50.02635 | 8.54066 | 335 ft | 16 kts | 248° |
| 2026-05-01 12:26 | 50.02596 | 8.53902 | 333 ft | 16 kts | 250° |
| 2026-05-01 12:26 | 50.02527 | 8.53616 | 336 ft | 12 kts | 250° |
| 2026-05-01 12:26 | 50.02501 | 8.53504 | 337 ft | 10 kts | 249° |
| 2026-05-01 12:27 | 50.02464 | 8.53355 | 334 ft | 20 kts | 249° |
| 2026-05-01 12:27 | 50.02374 | 8.52972 | 334 ft | 18 kts | 249° |
| 2026-05-01 12:28 | 50.02326 | 8.52780 | 334 ft | 0 kts | 249° |
| 2026-05-01 12:29 | 50.02325 | 8.52776 | 332 ft | 3 kts | 249° |
| 2026-05-01 12:29 | 50.02295 | 8.52653 | 331 ft | 13 kts | 251° |
| 2026-05-01 12:29 | 50.02247 | 8.52603 | 335 ft | 0 kts | 175° |
| 2026-05-01 12:30 | 50.02164 | 8.52611 | 335 ft | 46 kts | 176° |
| 2026-05-01 12:30 | 50.01586 | 8.52630 | 334 ft | 117 kts | 179° |
| 2026-05-01 12:30 | 50.00594 | 8.52636 | 403 ft | 160 kts | 176° |
| 2026-05-01 12:31 | 49.99489 | 8.52634 | 1068 ft | 158 kts | 174° |
| 2026-05-01 12:31 | 49.98385 | 8.52706 | 1763 ft | 162 kts | 172° |
| 2026-05-01 12:31 | 49.97195 | 8.52811 | 2093 ft | 182 kts | 173° |
| 2026-05-01 12:31 | 49.95849 | 8.52929 | 2357 ft | 206 kts | 175° |
| 2026-05-01 12:32 | 49.94347 | 8.53048 | 2859 ft | 221 kts | 174° |
| 2026-05-01 12:32 | 49.91230 | 8.53263 | 4554 ft | 224 kts | 176° |
| 2026-05-01 12:32 | 49.89675 | 8.53368 | 5475 ft | 224 kts | 175° |
| 2026-05-01 12:33 | 49.88115 | 8.53476 | 6334 ft | 226 kts | 175° |
| 2026-05-01 12:33 | 49.86530 | 8.53583 | 7067 ft | 231 kts | 176° |
| 2026-05-01 12:33 | 49.84911 | 8.53687 | 7802 ft | 235 kts | 176° |
| 2026-05-01 12:33 | 49.83273 | 8.53797 | 8572 ft | 237 kts | 175° |
| 2026-05-01 12:34 | 49.81617 | 8.53912 | 9362 ft | 240 kts | 175° |
| 2026-05-01 12:34 | 49.79937 | 8.54028 | 10159 ft | 243 kts | 175° |
| 2026-05-01 12:34 | 49.78261 | 8.54130 | 10869 ft | 247 kts | 178° |
| 2026-05-01 12:34 | 49.76475 | 8.53949 | 11280 ft | 267 kts | 182° |
| 2026-05-01 12:35 | 49.74554 | 8.53702 | 11522 ft | 290 kts | 182° |
| 2026-05-01 12:35 | 49.72460 | 8.53426 | 11723 ft | 314 kts | 183° |
| 2026-05-01 12:35 | 49.70223 | 8.53122 | 12130 ft | 329 kts | 183° |
| 2026-05-01 12:35 | 49.67921 | 8.52808 | 12776 ft | 335 kts | 182° |
| 2026-05-01 12:36 | 49.65581 | 8.52495 | 13473 ft | 340 kts | 182° |
| 2026-05-01 12:36 | 49.63212 | 8.52184 | 14140 ft | 345 kts | 182° |
| 2026-05-01 12:36 | 49.60807 | 8.51867 | 14752 ft | 349 kts | 182° |
| 2026-05-01 12:36 | 49.58376 | 8.51541 | 15394 ft | 352 kts | 182° |
| 2026-05-01 12:37 | 49.55920 | 8.51214 | 16033 ft | 355 kts | 182° |
| 2026-05-01 12:37 | 49.53446 | 8.50890 | 16667 ft | 358 kts | 182° |
| 2026-05-01 12:37 | 49.50952 | 8.50567 | 17287 ft | 362 kts | 182° |
| 2026-05-01 12:37 | 49.48435 | 8.50242 | 17912 ft | 365 kts | 182° |
| 2026-05-01 12:38 | 49.45895 | 8.49908 | 18526 ft | 368 kts | 182° |
| 2026-05-01 12:38 | 49.43339 | 8.49570 | 19066 ft | 371 kts | 183° |
| 2026-05-01 12:38 | 49.40755 | 8.49231 | 19618 ft | 373 kts | 183° |
| 2026-05-01 12:38 | 49.38156 | 8.48891 | 20131 ft | 377 kts | 182° |
| 2026-05-01 12:39 | 49.35528 | 8.48545 | 20661 ft | 380 kts | 183° |
| 2026-05-01 12:39 | 49.32911 | 8.48228 | 21179 ft | 383 kts | 180° |
| 2026-05-01 12:39 | 49.30250 | 8.48420 | 21673 ft | 384 kts | 169° |
| 2026-05-01 12:39 | 49.27640 | 8.49349 | 22155 ft | 386 kts | 159° |
| 2026-05-01 12:40 | 49.25178 | 8.50999 | 22634 ft | 388 kts | 149° |
| 2026-05-01 12:40 | 49.22883 | 8.53193 | 23120 ft | 391 kts | 146° |
| 2026-05-01 12:40 | 49.20575 | 8.55439 | 23277 ft | 391 kts | 146° |
| 2026-05-01 12:40 | 49.18313 | 8.57619 | 23306 ft | 380 kts | 146° |
| 2026-05-01 12:41 | 49.16085 | 8.59753 | 23310 ft | 376 kts | 146° |
| 2026-05-01 12:41 | 49.13765 | 8.61598 | 23300 ft | 377 kts | 155° |
| 2026-05-01 12:41 | 49.11353 | 8.63158 | 23303 ft | 377 kts | 155° |
| 2026-05-01 12:41 | 49.08939 | 8.64726 | 23306 ft | 377 kts | 155° |
| 2026-05-01 12:42 | 49.06529 | 8.66297 | 23303 ft | 377 kts | 155° |
| 2026-05-01 12:42 | 49.04117 | 8.67869 | 23297 ft | 377 kts | 155° |
| 2026-05-01 12:42 | 49.01708 | 8.69432 | 23302 ft | 376 kts | 154° |
| 2026-05-01 12:42 | 48.99298 | 8.70992 | 23301 ft | 376 kts | 155° |
| 2026-05-01 12:43 | 48.96887 | 8.72550 | 23299 ft | 376 kts | 155° |
| 2026-05-01 12:43 | 48.94479 | 8.74104 | 23295 ft | 376 kts | 155° |
| 2026-05-01 12:43 | 48.92065 | 8.75656 | 23283 ft | 377 kts | 156° |
| 2026-05-01 12:43 | 48.89582 | 8.76784 | 23283 ft | 379 kts | 168° |
| 2026-05-01 12:44 | 48.86963 | 8.77175 | 23291 ft | 380 kts | 179° |
| 2026-05-01 12:44 | 48.84325 | 8.76794 | 23286 ft | 382 kts | 189° |
| 2026-05-01 12:44 | 48.79095 | 8.75376 | 23274 ft | 383 kts | 188° |
| 2026-05-01 12:45 | 48.73827 | 8.73959 | 23281 ft | 384 kts | 189° |
| 2026-05-01 12:45 | 48.71188 | 8.73255 | 23281 ft | 385 kts | 189° |
| 2026-05-01 12:45 | 48.68552 | 8.72554 | 23276 ft | 385 kts | 188° |
| 2026-05-01 12:46 | 48.65910 | 8.71850 | 23278 ft | 386 kts | 189° |
| 2026-05-01 12:46 | 48.63264 | 8.71143 | 23281 ft | 386 kts | 188° |
| 2026-05-01 12:46 | 48.60615 | 8.70437 | 23286 ft | 386 kts | 189° |
| 2026-05-01 12:46 | 48.57970 | 8.69732 | 23284 ft | 386 kts | 188° |
| 2026-05-01 12:47 | 48.55325 | 8.69028 | 23278 ft | 386 kts | 188° |
| 2026-05-01 12:47 | 48.52712 | 8.68331 | 23280 ft | 387 kts | 189° |
| 2026-05-01 12:47 | 48.50027 | 8.67615 | 23282 ft | 386 kts | 189° |
| 2026-05-01 12:47 | 48.47410 | 8.66918 | 23064 ft | 378 kts | 189° |
| 2026-05-01 12:48 | 48.44846 | 8.66237 | 22790 ft | 370 kts | 189° |
| 2026-05-01 12:48 | 48.42335 | 8.65575 | 22521 ft | 363 kts | 188° |
| 2026-05-01 12:48 | 48.39862 | 8.64928 | 22256 ft | 359 kts | 189° |
| 2026-05-01 12:48 | 48.37449 | 8.64294 | 21877 ft | 356 kts | 188° |
| 2026-05-01 12:49 | 48.35024 | 8.63603 | 21449 ft | 354 kts | 189° |
| 2026-05-01 12:49 | 48.32613 | 8.62873 | 21030 ft | 352 kts | 189° |
| 2026-05-01 12:49 | 48.30218 | 8.62131 | 20617 ft | 351 kts | 190° |
| 2026-05-01 12:49 | 48.27832 | 8.61390 | 20193 ft | 350 kts | 189° |
| 2026-05-01 12:50 | 48.25444 | 8.60654 | 19781 ft | 348 kts | 191° |
| 2026-05-01 12:50 | 48.23082 | 8.59934 | 19367 ft | 347 kts | 189° |
| 2026-05-01 12:50 | 48.20720 | 8.59220 | 18960 ft | 346 kts | 190° |
| 2026-05-01 12:50 | 48.18360 | 8.58512 | 18547 ft | 346 kts | 189° |
| 2026-05-01 12:51 | 48.16015 | 8.57810 | 18279 ft | 339 kts | 189° |
| 2026-05-01 12:51 | 48.13734 | 8.57126 | 18285 ft | 332 kts | 189° |
| 2026-05-01 12:51 | 48.09904 | 8.55988 | 17457 ft | 335 kts | 189° |
| 2026-05-01 12:52 | 48.07641 | 8.55312 | 17196 ft | 329 kts | 189° |
| 2026-05-01 12:52 | 48.03224 | 8.53996 | 16688 ft | 323 kts | 189° |
| 2026-05-01 12:52 | 48.01021 | 8.53341 | 16437 ft | 322 kts | 189° |
| 2026-05-01 12:53 | 47.96637 | 8.52282 | 15932 ft | 317 kts | 178° |
| 2026-05-01 12:53 | 47.94467 | 8.52681 | 15683 ft | 313 kts | 163° |
| 2026-05-01 12:53 | 47.92461 | 8.53858 | 15440 ft | 309 kts | 149° |
| 2026-05-01 12:54 | 47.90715 | 8.55696 | 15198 ft | 307 kts | 139° |
| 2026-05-01 12:54 | 47.87434 | 8.59709 | 14721 ft | 304 kts | 140° |
| 2026-05-01 12:54 | 47.85798 | 8.61701 | 14482 ft | 303 kts | 140° |
| 2026-05-01 12:55 | 47.82549 | 8.65644 | 14006 ft | 300 kts | 140° |
| 2026-05-01 12:55 | 47.80933 | 8.67603 | 13736 ft | 299 kts | 140° |
| 2026-05-01 12:55 | 47.79327 | 8.69548 | 13480 ft | 298 kts | 140° |
| 2026-05-01 12:56 | 47.77724 | 8.71489 | 13220 ft | 296 kts | 140° |
| 2026-05-01 12:56 | 47.76126 | 8.73418 | 12969 ft | 295 kts | 142° |
| 2026-05-01 12:56 | 47.74333 | 8.74859 | 12686 ft | 294 kts | 162° |
| 2026-05-01 12:56 | 47.72312 | 8.75192 | 12341 ft | 295 kts | 184° |
| 2026-05-01 12:57 | 47.70349 | 8.74331 | 11969 ft | 297 kts | 207° |
| 2026-05-01 12:57 | 47.67760 | 8.69670 | 11280 ft | 301 kts | 247° |
| 2026-05-01 12:57 | 47.66998 | 8.66784 | 10918 ft | 300 kts | 247° |
| 2026-05-01 12:58 | 47.66243 | 8.63908 | 10576 ft | 298 kts | 247° |
| 2026-05-01 12:58 | 47.65493 | 8.61045 | 10249 ft | 297 kts | 247° |
| 2026-05-01 12:58 | 47.64793 | 8.58221 | 9911 ft | 295 kts | 254° |
| 2026-05-01 12:59 | 47.64956 | 8.52271 | 9226 ft | 292 kts | 290° |
| 2026-05-01 12:59 | 47.65937 | 8.49652 | 8844 ft | 291 kts | 308° |
| 2026-05-01 12:59 | 47.68844 | 8.45526 | 8083 ft | 288 kts | 317° |
| 2026-05-01 13:00 | 47.71668 | 8.41647 | 7767 ft | 260 kts | 317° |
| 2026-05-01 13:00 | 47.72941 | 8.39844 | 7480 ft | 249 kts | 310° |
| 2026-05-01 13:01 | 47.73918 | 8.35191 | 6489 ft | 239 kts | 259° |
| 2026-05-01 13:01 | 47.73379 | 8.32900 | 5952 ft | 234 kts | 236° |
| 2026-05-01 13:01 | 47.71242 | 8.29304 | 5181 ft | 228 kts | 226° |
| 2026-05-01 13:02 | 47.70078 | 8.27777 | 5055 ft | 220 kts | 207° |
| 2026-05-01 13:07 | 47.50528 | 8.50429 | 2091 ft | 143 kts | 134° |
| 2026-05-01 13:07 | 47.49796 | 8.51431 | 1843 ft | 144 kts | 134° |
| 2026-05-01 13:07 | 47.49060 | 8.52443 | 1672 ft | 146 kts | 134° |
| 2026-05-01 13:08 | 47.48317 | 8.53459 | 1472 ft | 145 kts | 134° |
| 2026-05-01 13:08 | 47.47594 | 8.54453 | 1405 ft | 135 kts | 136° |
| 2026-05-01 13:08 | 47.46985 | 8.55283 | 1394 ft | 98 kts | 137° |
| 2026-05-01 13:08 | 47.46610 | 8.55804 | 1403 ft | 51 kts | 139° |
| 2026-05-01 13:09 | 47.46365 | 8.55964 | 1406 ft | 22 kts | 168° |
| 2026-05-01 13:09 | 47.46229 | 8.56003 | 1402 ft | 18 kts | 172° |
| 2026-05-01 13:09 | 47.46115 | 8.55993 | 1400 ft | 15 kts | 186° |
| 2026-05-01 13:09 | 47.46027 | 8.55982 | 1402 ft | 11 kts | 183° |
| 2026-05-01 13:10 | 47.45956 | 8.55964 | 1402 ft | 10 kts | 199° |
| 2026-05-01 13:10 | 47.45890 | 8.55928 | 1405 ft | 10 kts | 200° |
| 2026-05-01 13:10 | 47.45819 | 8.55891 | 1406 ft | 11 kts | 198° |
| 2026-05-01 13:10 | 47.45752 | 8.55871 | 1401 ft | 8 kts | 186° |
| 2026-05-01 13:11 | 47.45683 | 8.55863 | 1399 ft | 13 kts | 186° |
| 2026-05-01 13:11 | 47.45604 | 8.55850 | 1397 ft | 0 kts | 187° |
| 2026-05-01 13:11 | 47.45597 | 8.55848 | 1397 ft | 3 kts | 188° |
| 2026-05-01 13:11 | 47.45562 | 8.55842 | 1397 ft | 7 kts | 185° |
| 2026-05-01 13:12 | 47.45505 | 8.55818 | 1403 ft | 10 kts | 231° |
| 2026-05-01 13:12 | 47.45517 | 8.55743 | 1400 ft | 0 kts | 307° |
| 2026-05-01 13:12 | 47.45517 | 8.55711 | 1397 ft | 6 kts | 272° |
| 2026-05-01 13:12 | 47.45546 | 8.55685 | 1400 ft | 4 kts | 22° |
| 2026-05-01 13:13 | 47.45582 | 8.55691 | 1397 ft | 0 kts | 5° |
| 2026-05-01 13:13 | 47.45584 | 8.55691 | 1397 ft | 0 kts | 5° |